createdAt,value
2018-03-26T00:02:13.954Z,47.90
2018-03-26T00:04:41.158Z,48.30
2018-03-26T00:07:08.328Z,48.80
2018-03-26T00:09:35.534Z,47.90
2018-03-26T00:12:03.495Z,48.60
2018-03-26T00:14:30.703Z,48.00
2018-03-26T00:16:57.923Z,48.00
2018-03-26T00:19:25.863Z,47.90
2018-03-26T00:21:53.058Z,47.90
2018-03-26T00:24:20.233Z,48.30
2018-03-26T00:26:47.435Z,48.10
2018-03-26T00:29:15.362Z,48.50
2018-03-26T00:31:42.566Z,47.80
2018-03-26T00:34:10.498Z,47.40
2018-03-26T00:36:37.702Z,47.40
2018-03-26T00:39:04.907Z,47.40
2018-03-26T00:41:32.074Z,47.20
2018-03-26T00:43:59.284Z,47.20
2018-03-26T00:46:26.454Z,47.50
2018-03-26T00:48:53.624Z,48.10
2018-03-26T00:51:20.789Z,47.50
2018-03-26T00:53:48.726Z,48.30
2018-03-26T00:56:15.921Z,47.70
2018-03-26T00:58:43.864Z,47.80
2018-03-26T01:01:11.037Z,47.80
2018-03-26T01:03:39.259Z,48.20
2018-03-26T01:06:06.426Z,48.10
2018-03-26T01:08:33.629Z,48.30
2018-03-26T01:11:00.793Z,48.30
2018-03-26T01:13:28.033Z,48.00
2018-03-26T01:15:55.954Z,48.10
2018-03-26T01:18:23.117Z,48.00
2018-03-26T01:20:50.285Z,48.10
2018-03-26T01:23:18.227Z,48.50
2018-03-26T01:25:45.395Z,48.40
2018-03-26T01:28:12.565Z,48.30
2018-03-26T01:30:40.498Z,47.90
2018-03-26T01:33:07.671Z,47.90
2018-03-26T01:35:34.842Z,47.90
2018-03-26T01:38:03.673Z,48.20
2018-03-26T01:40:30.846Z,48.20
2018-03-26T01:42:58.020Z,48.20
2018-03-26T01:45:25.190Z,48.30
2018-03-26T01:47:53.130Z,48.20
2018-03-26T01:50:20.294Z,48.10
2018-03-26T01:52:48.238Z,48.10
2018-03-26T01:55:15.406Z,48.00
2018-03-26T01:57:42.580Z,48.10
2018-03-26T02:00:10.517Z,47.90
2018-03-26T02:02:37.685Z,47.80
2018-03-26T02:05:04.854Z,47.70
2018-03-26T02:07:32.793Z,48.10
2018-03-26T02:09:59.963Z,47.90
2018-03-26T02:12:27.897Z,48.30
2018-03-26T02:14:55.067Z,47.50
2018-03-26T02:17:22.234Z,47.80
2018-03-26T02:19:50.168Z,48.30
2018-03-26T02:22:18.101Z,48.10
2018-03-26T02:24:45.272Z,48.10
2018-03-26T02:27:12.453Z,48.10
2018-03-26T02:29:39.617Z,47.80
2018-03-26T02:32:06.823Z,47.90
2018-03-26T02:34:33.990Z,48.10
2018-03-26T02:37:01.199Z,47.90
2018-03-26T02:39:28.375Z,47.80
2018-03-26T02:41:55.596Z,47.80
2018-03-26T02:44:23.534Z,47.70
2018-03-26T02:46:50.706Z,47.70
2018-03-26T02:49:17.875Z,47.90
2018-03-26T02:51:45.815Z,47.40
2018-03-26T02:54:12.985Z,47.40
2018-03-26T02:56:40.937Z,47.30
2018-03-26T02:59:08.894Z,47.40
2018-03-26T03:01:36.104Z,47.30
2018-03-26T03:04:03.266Z,48.20
2018-03-26T03:06:30.485Z,47.80
2018-03-26T03:08:58.417Z,48.10
2018-03-26T03:11:25.582Z,48.10
2018-03-26T03:13:52.754Z,47.90
2018-03-26T03:16:20.721Z,48.20
2018-03-26T03:18:48.657Z,48.00
2018-03-26T03:21:15.883Z,48.00
2018-03-26T03:23:43.035Z,48.20
2018-03-26T03:26:10.203Z,48.30
2018-03-26T03:28:37.370Z,48.30
2018-03-26T03:31:04.547Z,48.50
2018-03-26T03:33:32.517Z,48.20
2018-03-26T03:36:00.453Z,48.30
2018-03-26T03:38:27.658Z,48.20
2018-03-26T03:40:55.594Z,48.50
2018-03-26T03:43:22.801Z,48.50
2018-03-26T03:45:49.964Z,48.50
2018-03-26T03:48:17.166Z,48.50
2018-03-26T03:50:45.130Z,48.30
2018-03-26T03:53:12.298Z,48.30
2018-03-26T03:55:40.228Z,48.40
2018-03-26T03:58:07.411Z,48.30
2018-03-26T04:00:35.347Z,48.10
2018-03-26T04:03:03.282Z,48.30
2018-03-26T04:05:30.457Z,48.30
2018-03-26T04:07:57.625Z,48.30
2018-03-26T04:10:24.796Z,48.30
2018-03-26T04:12:52.008Z,48.20
2018-03-26T04:15:19.182Z,48.40
2018-03-26T04:17:47.186Z,48.40
2018-03-26T04:20:17.677Z,48.30
2018-03-26T04:22:44.845Z,48.30
2018-03-26T04:25:12.056Z,48.90
2018-03-26T04:27:39.262Z,48.40
2018-03-26T04:30:07.197Z,48.50
2018-03-26T04:32:34.370Z,48.40
2018-03-26T04:35:01.534Z,48.40
2018-03-26T04:37:29.471Z,48.50
2018-03-26T04:39:56.674Z,48.50
2018-03-26T04:42:24.654Z,48.50
2018-03-26T04:44:51.826Z,48.50
2018-03-26T04:47:18.996Z,48.30
2018-03-26T04:49:46.166Z,48.40
2018-03-26T04:52:13.329Z,48.10
2018-03-26T04:54:41.265Z,48.60
2018-03-26T04:57:08.453Z,48.30
2018-03-26T04:59:36.394Z,48.20
2018-03-26T05:02:04.333Z,48.10
2018-03-26T05:04:31.499Z,48.10
2018-03-26T05:06:58.662Z,48.10
2018-03-26T05:09:25.830Z,47.70
2018-03-26T05:11:52.998Z,47.90
2018-03-26T05:14:20.937Z,47.90
2018-03-26T05:16:49.835Z,47.60
2018-03-26T05:19:17.821Z,47.60
2018-03-26T05:21:45.122Z,47.50
2018-03-26T05:24:12.292Z,47.40
2018-03-26T05:26:39.462Z,47.50
2018-03-26T05:29:06.631Z,47.60
2018-03-26T05:31:33.841Z,47.50
2018-03-26T05:34:01.016Z,47.30
2018-03-26T05:36:28.276Z,47.20
2018-03-26T05:38:55.448Z,47.40
2018-03-26T05:41:23.385Z,47.30
2018-03-26T05:43:50.553Z,47.20
2018-03-26T05:46:17.718Z,47.40
2018-03-26T05:48:44.887Z,47.40
2018-03-26T05:51:12.828Z,47.10
2018-03-26T05:53:40.003Z,47.10
2018-03-26T05:56:07.969Z,47.00
2018-03-26T05:58:35.906Z,47.00
2018-03-26T06:01:03.073Z,46.90
2018-03-26T06:03:30.250Z,47.00
2018-03-26T06:05:58.203Z,47.20
2018-03-26T06:08:26.144Z,47.50
2018-03-26T06:10:53.367Z,47.50
2018-03-26T06:13:21.266Z,47.60
2018-03-26T06:15:48.482Z,47.50
2018-03-26T06:18:15.690Z,47.20
2018-03-26T06:20:42.853Z,47.10
2018-03-26T06:23:10.793Z,47.30
2018-03-26T06:25:38.729Z,47.70
2018-03-26T06:28:05.901Z,47.70
2018-03-26T06:30:33.102Z,47.80
2018-03-26T06:33:00.283Z,47.60
2018-03-26T06:35:27.454Z,47.50
2018-03-26T06:38:07.486Z,47.90
2018-03-26T06:40:34.658Z,48.10
2018-03-26T06:43:01.831Z,47.70
2018-03-26T06:45:29.001Z,47.90
2018-03-26T06:47:56.343Z,47.90
2018-03-26T06:50:23.512Z,47.60
2018-03-26T06:52:51.449Z,47.30
2018-03-26T06:55:19.379Z,47.30
2018-03-26T06:57:46.552Z,47.20
2018-03-26T07:00:13.722Z,47.40
2018-03-26T07:02:40.902Z,47.40
2018-03-26T07:05:08.843Z,47.10
2018-03-26T07:07:36.011Z,47.50
2018-03-26T07:10:03.182Z,47.40
2018-03-26T07:12:31.169Z,47.90
2018-03-26T07:14:59.083Z,47.90
2018-03-26T07:17:26.254Z,47.90
2018-03-26T07:19:53.427Z,48.00
2018-03-26T07:22:22.318Z,48.00
2018-03-26T07:24:50.254Z,48.00
2018-03-26T07:27:17.427Z,48.60
2018-03-26T07:29:44.593Z,47.90
2018-03-26T07:32:12.527Z,47.60
2018-03-26T07:34:39.694Z,47.60
2018-03-26T07:37:06.862Z,47.90
2018-03-26T07:39:34.800Z,48.00
2018-03-26T07:42:01.967Z,48.00
2018-03-26T07:44:29.138Z,48.00
2018-03-26T07:46:57.071Z,48.20
2018-03-26T07:49:24.247Z,48.10
2018-03-26T07:51:51.422Z,48.10
2018-03-26T07:54:18.593Z,48.30
2018-03-26T07:56:45.862Z,48.20
2018-03-26T07:59:13.087Z,48.20
2018-03-26T08:01:40.260Z,48.70
2018-03-26T08:04:07.437Z,48.70
2018-03-26T08:06:34.619Z,48.30
2018-03-26T08:09:02.559Z,48.20
2018-03-26T08:11:29.725Z,48.20
2018-03-26T08:13:56.936Z,48.10
2018-03-26T08:16:24.103Z,48.00
2018-03-26T08:18:52.039Z,47.80
2018-03-26T08:21:19.245Z,47.80
2018-03-26T08:23:46.444Z,47.90
2018-03-26T08:26:13.653Z,47.90
2018-03-26T08:28:40.822Z,47.70
2018-03-26T08:31:08.758Z,47.50
2018-03-26T08:33:35.922Z,47.40
2018-03-26T08:36:03.142Z,47.60
2018-03-26T08:38:30.318Z,48.20
2018-03-26T08:40:57.493Z,47.10
2018-03-26T08:43:25.486Z,48.40
2018-03-26T08:45:52.668Z,48.40
2018-03-26T08:48:19.834Z,48.00
2018-03-26T08:50:47.001Z,48.10
2018-03-26T08:53:14.171Z,47.80
2018-03-26T08:55:43.001Z,47.60
2018-03-26T08:58:10.168Z,47.60
2018-03-26T09:00:37.350Z,47.30
2018-03-26T09:03:04.517Z,47.30
2018-03-26T09:05:32.454Z,47.30
2018-03-26T09:07:59.618Z,47.30
2018-03-26T09:10:26.788Z,47.30
2018-03-26T09:12:54.754Z,47.80
2018-03-26T09:15:22.726Z,48.10
2018-03-26T09:17:50.659Z,47.50
2018-03-26T09:20:17.826Z,47.50
2018-03-26T09:22:44.990Z,47.50
2018-03-26T09:25:12.160Z,47.60
2018-03-26T09:27:40.099Z,47.70
2018-03-26T09:30:07.302Z,47.70
2018-03-26T09:32:34.469Z,47.70
2018-03-26T09:35:01.665Z,47.60
2018-03-26T09:37:28.836Z,47.80
2018-03-26T09:39:56.769Z,47.50
2018-03-26T09:42:23.945Z,47.30
2018-03-26T09:44:51.164Z,47.40
2018-03-26T09:47:18.330Z,47.30
2018-03-26T09:49:45.503Z,47.20
2018-03-26T09:52:13.449Z,47.40
2018-03-26T09:54:40.625Z,47.30
2018-03-26T09:57:08.558Z,47.70
2018-03-26T09:59:35.727Z,47.20
2018-03-26T10:02:02.900Z,47.40
2018-03-26T10:04:30.840Z,47.60
2018-03-26T10:06:58.006Z,47.50
2018-03-26T10:09:25.171Z,47.60
2018-03-26T10:11:53.113Z,47.60
2018-03-26T10:14:20.283Z,47.50
2018-03-26T10:16:47.455Z,47.60
2018-03-26T10:19:15.391Z,47.80
2018-03-26T10:21:42.561Z,47.70
2018-03-26T10:24:10.496Z,47.80
2018-03-26T10:26:37.654Z,47.80
2018-03-26T10:29:05.587Z,47.70
2018-03-26T10:31:32.790Z,47.70
2018-03-26T10:33:59.962Z,47.90
2018-03-26T10:36:27.902Z,48.10
2018-03-26T10:38:55.074Z,48.00
2018-03-26T10:41:22.241Z,48.00
2018-03-26T10:43:50.173Z,48.10
2018-03-26T10:46:17.343Z,48.00
2018-03-26T10:48:45.294Z,48.50
2018-03-26T10:51:12.472Z,48.50
2018-03-26T10:53:40.410Z,48.30
2018-03-26T10:56:07.591Z,48.20
2018-03-26T10:58:35.807Z,48.30
2018-03-26T11:01:02.998Z,48.20
2018-03-26T11:03:31.678Z,48.10
2018-03-26T11:05:58.844Z,48.00
2018-03-26T11:08:26.013Z,48.10
2018-03-26T11:21:52.610Z,47.80
2018-03-26T11:24:19.777Z,48.00
2018-03-26T11:26:47.746Z,48.40
2018-03-26T11:29:15.689Z,48.50
2018-03-26T11:31:42.899Z,47.90
2018-03-26T11:34:10.069Z,47.80
2018-03-26T11:36:37.239Z,47.90
2018-03-26T11:39:05.181Z,48.20
2018-03-26T11:41:32.378Z,48.20
2018-03-26T11:43:59.552Z,48.20
2018-03-26T11:46:27.491Z,48.20
2018-03-26T11:48:54.660Z,48.10
2018-03-26T11:51:21.870Z,48.30
2018-03-26T11:53:49.042Z,48.30
2018-03-26T11:56:16.255Z,48.40
2018-03-26T11:58:44.289Z,48.40
2018-03-26T12:01:12.274Z,49.00
2018-03-26T12:03:40.263Z,48.50
2018-03-26T12:06:07.434Z,48.40
2018-03-26T12:08:34.611Z,48.60
2018-03-26T12:11:01.822Z,48.70
2018-03-26T12:13:29.022Z,48.70
2018-03-26T12:15:56.234Z,48.70
2018-03-26T12:18:23.445Z,48.80
2018-03-26T12:20:57.261Z,48.90
2018-03-26T12:23:31.109Z,48.90
2018-03-26T12:25:58.311Z,48.90
2018-03-26T12:28:31.282Z,49.00
2018-03-26T12:30:58.490Z,49.00
2018-03-26T12:33:25.698Z,49.00
2018-03-26T12:35:56.598Z,49.30
2018-03-26T12:38:23.809Z,49.40
2018-03-26T12:40:58.607Z,49.30
2018-03-26T12:43:25.810Z,49.30
2018-03-26T12:45:58.793Z,49.50
2018-03-26T12:48:26.004Z,49.50
2018-03-26T12:50:59.168Z,49.40
2018-03-26T12:53:26.335Z,49.50
2018-03-26T12:55:53.506Z,49.70
2018-03-26T12:58:26.643Z,49.50
2018-03-26T13:00:59.777Z,49.70
2018-03-26T13:03:26.950Z,49.80
2018-03-26T13:05:54.186Z,49.50
2018-03-26T13:08:21.355Z,49.50
2018-03-26T13:10:49.293Z,50.30
2018-03-26T13:13:16.467Z,50.30
2018-03-26T13:15:43.639Z,50.70
2018-03-26T13:18:11.676Z,50.90
2018-03-26T13:20:38.863Z,50.90
2018-03-26T13:23:06.793Z,50.20
2018-03-26T13:25:34.011Z,50.20
2018-03-26T13:28:01.183Z,50.20
2018-03-26T13:30:28.406Z,50.00
2018-03-26T13:32:55.583Z,49.80
2018-03-26T13:35:22.758Z,49.70
2018-03-26T13:37:49.930Z,50.00
2018-03-26T13:40:17.870Z,50.40
2018-03-26T13:42:45.044Z,50.40
2018-03-26T13:45:12.339Z,50.50
2018-03-26T13:47:39.513Z,50.40
2018-03-26T13:50:06.702Z,50.40
2018-03-26T13:52:33.873Z,50.50
2018-03-26T13:55:01.807Z,50.40
2018-03-26T13:57:28.974Z,50.30
2018-03-26T13:59:56.139Z,50.30
2018-03-26T14:02:24.075Z,50.50
2018-03-26T14:04:51.291Z,50.50
2018-03-26T14:07:18.465Z,50.50
2018-03-26T14:09:51.575Z,50.50
2018-03-26T14:12:24.718Z,50.50
2018-03-26T14:14:57.914Z,50.10
2018-03-26T14:17:31.097Z,50.20
2018-03-26T14:19:58.266Z,50.00
2018-03-26T14:22:25.439Z,50.20
2018-03-26T14:24:52.597Z,50.20
2018-03-26T14:27:19.772Z,50.40
2018-03-26T14:29:46.934Z,50.50
2018-03-26T14:32:14.910Z,50.40
2018-03-26T14:34:48.670Z,50.40
2018-03-26T14:37:15.839Z,50.40
2018-03-26T14:39:43.049Z,50.30
2018-03-26T14:42:10.222Z,50.60
2018-03-26T14:44:37.411Z,50.60
2018-03-26T14:47:04.590Z,50.60
2018-03-26T14:49:31.815Z,50.70
2018-03-26T14:51:59.062Z,50.60
2018-03-26T14:54:26.278Z,50.40
2018-03-26T14:56:53.587Z,50.60
2018-03-26T14:59:21.562Z,50.70
2018-03-26T15:01:49.490Z,50.80
2018-03-26T15:04:17.626Z,50.80
2018-03-26T15:06:44.814Z,50.80
2018-03-26T15:09:12.026Z,50.80
2018-03-26T15:11:39.199Z,50.70
2018-03-26T15:14:06.381Z,50.70
2018-03-26T15:16:33.543Z,50.20
2018-03-26T15:19:00.759Z,50.10
2018-03-26T15:21:27.934Z,50.10
2018-03-26T15:23:55.106Z,50.00
2018-03-26T15:26:22.278Z,49.80
2018-03-26T15:28:50.210Z,50.10
2018-03-26T15:31:17.425Z,50.10
2018-03-26T15:33:44.592Z,49.90
2018-03-26T15:36:11.760Z,49.80
2018-03-26T15:38:38.931Z,49.90
2018-03-26T15:41:06.142Z,49.70
2018-03-26T15:43:33.310Z,49.70
2018-03-26T15:46:00.529Z,49.80
2018-03-26T15:48:27.697Z,50.40
2018-03-26T15:50:54.912Z,49.80
2018-03-26T15:53:22.893Z,50.00
2018-03-26T15:55:50.105Z,50.00
2018-03-26T15:58:17.275Z,49.90
2018-03-26T16:00:45.277Z,49.90
2018-03-26T16:03:18.258Z,49.90
2018-03-26T16:05:45.476Z,50.00
2018-03-26T16:08:12.646Z,49.90
2018-03-26T16:10:40.589Z,50.00
2018-03-26T16:13:07.805Z,50.00
2018-03-26T16:15:34.969Z,49.90
2018-03-26T16:18:02.138Z,49.70
2018-03-26T16:20:29.359Z,49.80
2018-03-26T16:22:56.523Z,49.80
2018-03-26T16:25:23.695Z,49.70
2018-03-26T16:27:50.862Z,49.80
2018-03-26T16:30:18.034Z,50.00
2018-03-26T16:32:45.970Z,49.80
2018-03-26T16:35:13.627Z,49.80
2018-03-26T16:37:41.584Z,49.80
2018-03-26T16:40:08.804Z,49.70
2018-03-26T16:42:41.977Z,49.70
2018-03-26T16:45:09.922Z,49.90
2018-03-26T16:47:37.092Z,49.80
2018-03-26T16:50:05.042Z,49.70
2018-03-26T16:52:32.209Z,49.70
2018-03-26T16:55:00.189Z,49.60
2018-03-26T16:57:28.135Z,49.30
2018-03-26T16:59:55.308Z,49.30
2018-03-26T17:02:23.238Z,49.50
2018-03-26T17:04:50.408Z,49.50
2018-03-26T17:07:18.359Z,50.10
2018-03-26T17:09:45.525Z,49.50
2018-03-26T17:12:12.694Z,49.30
2018-03-26T17:14:40.646Z,49.20
2018-03-26T17:17:07.817Z,49.20
2018-03-26T17:19:35.754Z,49.30
2018-03-26T17:22:02.961Z,49.30
2018-03-26T17:24:30.226Z,49.00
2018-03-26T17:26:57.430Z,48.70
2018-03-26T17:29:24.610Z,48.30
2018-03-26T17:31:52.542Z,48.00
2018-03-26T17:34:19.751Z,48.00
2018-03-26T17:36:46.922Z,48.00
2018-03-26T17:39:14.094Z,48.00
2018-03-26T17:41:41.269Z,48.10
2018-03-26T17:44:09.199Z,48.20
2018-03-26T17:46:36.365Z,48.00
2018-03-26T17:49:03.539Z,48.10
2018-03-26T17:51:31.469Z,48.80
2018-03-26T17:53:58.662Z,48.80
2018-03-26T17:56:26.599Z,48.80
2018-03-26T17:58:53.799Z,48.20
2018-03-26T18:01:21.729Z,48.30
2018-03-26T18:03:48.902Z,48.30
2018-03-26T18:06:16.841Z,49.20
2018-03-26T18:08:44.015Z,48.50
2018-03-26T18:11:11.190Z,48.60
2018-03-26T18:13:38.389Z,48.60
2018-03-26T18:16:05.598Z,48.70
2018-03-26T18:18:33.572Z,48.60
2018-03-26T18:21:00.739Z,48.60
2018-03-26T18:23:27.918Z,48.70
2018-03-26T18:25:55.094Z,48.80
2018-03-26T18:28:22.266Z,48.60
2018-03-26T18:30:50.198Z,48.60
2018-03-26T18:33:17.406Z,48.50
2018-03-26T18:35:44.577Z,48.70
2018-03-26T18:38:11.804Z,48.70
2018-03-26T18:40:39.738Z,48.70
2018-03-26T18:43:06.908Z,48.60
2018-03-26T18:45:34.846Z,48.50
2018-03-26T18:48:02.806Z,48.50
2018-03-26T18:50:29.970Z,48.30
2018-03-26T18:52:57.138Z,48.10
2018-03-26T18:55:25.209Z,48.10
2018-03-26T18:57:52.387Z,48.30
2018-03-26T19:00:20.339Z,48.50
2018-03-26T19:02:48.283Z,48.40
2018-03-26T19:05:15.449Z,48.40
2018-03-26T19:07:42.708Z,48.50
2018-03-26T19:10:09.887Z,48.50
2018-03-26T19:12:37.058Z,48.90
2018-03-26T19:15:04.230Z,49.00
2018-03-26T19:17:31.425Z,48.90
2018-03-26T19:19:59.366Z,49.00
2018-03-26T19:22:26.542Z,48.90
2018-03-26T19:24:54.483Z,49.10
2018-03-26T19:27:21.654Z,48.80
2018-03-26T19:29:48.967Z,48.60
2018-03-26T19:32:16.147Z,48.50
2018-03-26T19:34:43.549Z,48.40
2018-03-26T19:37:10.770Z,48.40
2018-03-26T19:39:37.942Z,48.40
2018-03-26T19:42:05.875Z,48.40
2018-03-26T19:44:33.055Z,48.30
2018-03-26T19:47:19.003Z,48.20
2018-03-26T19:49:46.169Z,48.10
2018-03-26T19:52:14.105Z,48.30
2018-03-26T19:54:41.295Z,48.20
2018-03-26T19:57:08.593Z,48.40
2018-03-26T19:59:35.784Z,48.30
2018-03-26T20:02:02.974Z,48.20
2018-03-26T20:04:31.054Z,48.90
2018-03-26T20:06:58.994Z,48.20
2018-03-26T20:09:26.254Z,48.20
2018-03-26T20:11:53.537Z,48.40
2018-03-26T20:14:21.607Z,48.40
2018-03-26T20:16:49.565Z,48.30
2018-03-26T20:19:17.738Z,48.10
2018-03-26T20:21:44.906Z,48.40
2018-03-26T20:24:12.844Z,48.30
2018-03-26T20:26:40.067Z,48.30
2018-03-26T20:29:07.244Z,48.30
2018-03-26T20:31:34.457Z,48.20
2018-03-26T20:34:01.627Z,48.10
2018-03-26T20:36:28.802Z,48.00
2018-03-26T20:38:55.970Z,48.00
2018-03-26T20:41:23.186Z,48.10
2018-03-26T20:43:50.382Z,48.10
2018-03-26T20:46:17.553Z,48.20
2018-03-26T20:48:45.533Z,48.30
2018-03-26T20:51:12.715Z,48.20
2018-03-26T20:53:39.923Z,48.20
2018-03-26T20:56:07.906Z,48.10
2018-03-26T20:58:35.072Z,48.10
2018-03-26T21:01:02.286Z,48.30
2018-03-26T21:03:29.510Z,48.30
2018-03-26T21:05:56.678Z,48.20
2018-03-26T21:08:23.845Z,48.10
2018-03-26T21:10:51.787Z,48.00
2018-03-26T21:13:18.961Z,47.90
2018-03-26T21:15:46.901Z,48.30
2018-03-26T21:18:14.070Z,48.20
2018-03-26T21:20:41.243Z,48.30
2018-03-26T21:23:09.221Z,48.10
2018-03-26T21:25:37.166Z,48.00
2018-03-26T21:28:04.338Z,48.00
2018-03-26T21:30:32.263Z,48.40
2018-03-26T21:32:59.545Z,48.40
2018-03-26T21:35:26.730Z,48.40
2018-03-26T21:37:53.933Z,48.40
2018-03-26T21:40:21.156Z,48.40
2018-03-26T21:42:48.334Z,48.50
2018-03-26T21:45:15.559Z,49.00
2018-03-26T21:47:42.733Z,48.50
2018-03-26T21:50:09.902Z,48.70
2018-03-26T21:52:37.089Z,48.60
2018-03-26T21:55:04.253Z,48.40
2018-03-26T21:57:31.465Z,48.00
2018-03-26T22:08:13.508Z,47.90
2018-03-26T22:10:40.668Z,47.80
2018-03-26T22:13:07.829Z,47.90
2018-03-26T22:15:36.633Z,47.70
2018-03-26T22:18:04.562Z,48.00
2018-03-26T22:20:31.721Z,48.00
2018-03-26T22:22:58.850Z,47.90
2018-03-26T22:25:26.296Z,47.70
2018-03-26T22:27:53.452Z,47.50
2018-03-26T22:30:20.579Z,47.50
2018-03-26T22:32:47.702Z,47.80
2018-03-26T22:35:15.596Z,48.60
2018-03-26T22:37:42.721Z,47.90
2018-03-26T22:40:10.612Z,48.20
2018-03-26T22:42:37.749Z,47.80
2018-03-26T22:53:19.764Z,47.80
2018-03-26T22:55:46.932Z,48.10
2018-03-26T22:58:14.060Z,48.00
2018-03-26T23:00:42.984Z,47.80
2018-03-26T23:03:10.112Z,47.60
2018-03-26T23:05:37.286Z,47.90
2018-03-26T23:08:04.413Z,47.90
2018-03-26T23:10:31.540Z,48.10
2018-03-26T23:12:58.664Z,49.00
2018-03-26T23:15:26.698Z,47.80
2018-03-26T23:17:53.869Z,47.80
2018-03-26T23:20:21.806Z,48.40
2018-03-26T23:22:48.960Z,47.70
2018-03-26T23:25:16.128Z,48.30
2018-03-26T23:27:43.253Z,47.90
2018-03-26T23:30:10.430Z,48.10
2018-03-26T23:32:37.559Z,48.30
2018-03-26T23:35:05.447Z,48.20
2018-03-26T23:37:32.615Z,48.10
2018-03-26T23:40:00.524Z,48.30
2018-03-26T23:42:27.698Z,48.10
2018-03-26T23:44:54.883Z,47.90
2018-03-26T23:47:22.024Z,48.00
2018-03-26T23:49:49.956Z,48.10
2018-03-26T23:52:17.100Z,48.20
2018-03-26T23:54:44.284Z,48.10
2018-03-26T23:57:11.426Z,48.00
2018-03-26T23:59:38.601Z,48.20
